createdAt,value
2017-09-24T00:00:34.711Z,0
2017-09-24T00:01:15.207Z,0
2017-09-24T00:01:55.782Z,0
2017-09-24T00:02:36.315Z,0
2017-09-24T00:03:16.868Z,0
2017-09-24T00:03:57.421Z,0
2017-09-24T00:04:37.959Z,0
2017-09-24T00:05:18.531Z,0
2017-09-24T00:05:59.084Z,0
2017-09-24T00:06:39.636Z,0
2017-09-24T00:07:20.208Z,0
2017-09-24T00:08:01.029Z,0
2017-09-24T00:08:41.505Z,0
2017-09-24T00:09:22.084Z,0
2017-09-24T00:10:02.592Z,0
2017-09-24T00:10:43.094Z,0
2017-09-24T00:11:23.607Z,0
2017-09-24T00:12:04.156Z,0
2017-09-24T00:12:44.730Z,0
2017-09-24T00:13:25.261Z,0
2017-09-24T00:14:05.921Z,0
2017-09-24T00:14:46.423Z,0
2017-09-24T00:15:27.032Z,0
2017-09-24T00:16:07.559Z,0
2017-09-24T00:16:48.088Z,0
2017-09-24T00:17:28.608Z,0
2017-09-24T00:18:09.155Z,0
2017-09-24T00:18:49.705Z,0
2017-09-24T00:19:30.593Z,0
2017-09-24T00:20:11.161Z,0
2017-09-24T00:20:51.719Z,0
2017-09-24T00:21:32.327Z,0
2017-09-24T00:22:12.824Z,0
2017-09-24T00:22:53.351Z,0
2017-09-24T00:23:33.862Z,0
2017-09-24T00:24:14.403Z,0
2017-09-24T00:24:54.894Z,0
2017-09-24T00:25:35.502Z,0
2017-09-24T00:26:16.023Z,0
2017-09-24T00:26:56.545Z,0
2017-09-24T00:27:37.096Z,0
2017-09-24T00:28:17.610Z,0
2017-09-24T00:28:58.205Z,0
2017-09-24T00:29:38.717Z,0
2017-09-24T00:30:19.258Z,0
2017-09-24T00:30:59.801Z,0
2017-09-24T00:31:40.346Z,0
2017-09-24T00:32:20.873Z,0
2017-09-24T00:33:01.446Z,0
2017-09-24T00:33:42.016Z,0
2017-09-24T00:34:22.571Z,0
2017-09-24T00:35:03.152Z,0
2017-09-24T00:35:43.603Z,0
2017-09-24T00:36:24.134Z,0
2017-09-24T00:37:04.711Z,0
2017-09-24T00:37:45.260Z,0
2017-09-24T00:38:25.775Z,0
2017-09-24T00:39:06.316Z,0
2017-09-24T00:39:46.947Z,0
2017-09-24T00:40:27.476Z,0
2017-09-24T00:41:08.034Z,0
2017-09-24T00:41:48.571Z,0
2017-09-24T00:42:29.140Z,0
2017-09-24T00:43:09.635Z,0
2017-09-24T00:43:50.147Z,0
2017-09-24T00:44:30.751Z,0
2017-09-24T00:45:11.240Z,0
2017-09-24T00:45:51.789Z,0
2017-09-24T00:46:32.329Z,0
2017-09-24T00:47:12.939Z,0
2017-09-24T00:47:53.435Z,0
2017-09-24T00:48:33.993Z,0
2017-09-24T00:49:14.526Z,0
2017-09-24T00:49:55.068Z,0
2017-09-24T00:50:35.644Z,0
2017-09-24T00:51:16.213Z,0
2017-09-24T00:51:56.776Z,0
2017-09-24T00:52:37.266Z,0
2017-09-24T00:53:17.859Z,0
2017-09-24T00:53:58.403Z,0
2017-09-24T00:54:38.927Z,0
2017-09-24T00:55:19.446Z,0
2017-09-24T00:56:00.007Z,0
2017-09-24T00:56:40.588Z,0
2017-09-24T00:57:21.107Z,0
2017-09-24T00:58:01.664Z,0
2017-09-24T00:58:42.185Z,0
2017-09-24T00:59:22.707Z,0
2017-09-24T01:00:03.248Z,0
2017-09-24T01:00:43.776Z,0
2017-09-24T01:01:24.289Z,0
2017-09-24T01:02:04.990Z,0
2017-09-24T01:02:45.452Z,0
2017-09-24T01:03:25.992Z,0
2017-09-24T01:04:06.565Z,0
2017-09-24T01:04:47.099Z,0
2017-09-24T01:05:27.564Z,0
2017-09-24T01:06:08.073Z,0
2017-09-24T01:06:48.637Z,0
2017-09-24T01:07:29.199Z,0
2017-09-24T01:08:09.693Z,0
2017-09-24T01:08:50.458Z,0
2017-09-24T01:09:30.937Z,0
2017-09-24T01:10:11.471Z,0
2017-09-24T01:10:52.037Z,0
2017-09-24T01:11:32.630Z,0
2017-09-24T01:12:13.142Z,0
2017-09-24T01:12:53.725Z,0
2017-09-24T01:13:34.326Z,0
2017-09-24T01:14:14.883Z,0
2017-09-24T01:14:55.392Z,0
2017-09-24T01:15:35.950Z,0
2017-09-24T01:16:16.457Z,0
2017-09-24T01:16:56.973Z,0
2017-09-24T01:17:37.701Z,0
2017-09-24T01:18:18.221Z,0
2017-09-24T01:18:58.774Z,0
2017-09-24T01:19:39.274Z,0
2017-09-24T01:20:19.808Z,0
2017-09-24T01:21:00.369Z,0
2017-09-24T01:21:40.877Z,0
2017-09-24T01:22:21.536Z,0
2017-09-24T01:23:02.021Z,0
2017-09-24T01:23:42.571Z,0
2017-09-24T01:24:23.134Z,0
2017-09-24T01:25:03.607Z,0
2017-09-24T01:25:44.171Z,0
2017-09-24T01:26:24.702Z,0
2017-09-24T01:27:05.279Z,0
2017-09-24T01:27:45.816Z,0
2017-09-24T01:28:26.545Z,0
2017-09-24T01:29:07.088Z,0
2017-09-24T01:29:47.634Z,0
2017-09-24T01:30:28.239Z,0
2017-09-24T01:31:08.866Z,0
2017-09-24T01:31:49.370Z,0
2017-09-24T01:32:29.963Z,0
2017-09-24T01:33:10.506Z,0
2017-09-24T01:33:50.992Z,0
2017-09-24T01:34:31.598Z,0
2017-09-24T01:35:12.139Z,0
2017-09-24T01:35:52.679Z,0
2017-09-24T01:36:33.232Z,0
2017-09-24T01:37:13.727Z,0
2017-09-24T01:37:54.269Z,0
2017-09-24T01:38:34.817Z,0
2017-09-24T01:39:15.370Z,0
2017-09-24T01:39:55.940Z,0
2017-09-24T01:40:36.511Z,0
2017-09-24T01:41:17.014Z,0
2017-09-24T01:41:57.568Z,0
2017-09-24T01:42:38.394Z,0
2017-09-24T01:43:18.942Z,0
2017-09-24T01:43:59.494Z,0
2017-09-24T01:44:40.012Z,0
2017-09-24T01:45:20.707Z,0
2017-09-24T01:46:01.466Z,0
2017-09-24T01:46:41.969Z,0
2017-09-24T01:47:22.554Z,0
2017-09-24T01:48:03.035Z,0
2017-09-24T01:48:43.589Z,0
2017-09-24T01:49:24.156Z,0
2017-09-24T01:50:04.669Z,0
2017-09-24T01:50:45.233Z,0
2017-09-24T01:51:25.852Z,0
2017-09-24T01:52:06.380Z,0
2017-09-24T01:52:46.984Z,0
2017-09-24T01:53:27.517Z,0
2017-09-24T01:54:08.033Z,0
2017-09-24T01:54:48.596Z,0
2017-09-24T01:55:29.143Z,0
2017-09-24T01:56:09.818Z,0
2017-09-24T01:56:50.335Z,0
2017-09-24T01:57:30.911Z,0
2017-09-24T01:58:11.482Z,0
2017-09-24T01:58:52.011Z,0
2017-09-24T01:59:32.563Z,0
2017-09-24T02:00:13.138Z,0
2017-09-24T02:00:53.694Z,0
2017-09-24T02:01:34.218Z,0
2017-09-24T02:02:14.740Z,0
2017-09-24T02:02:55.287Z,0
2017-09-24T02:03:35.843Z,0
2017-09-24T02:04:16.315Z,0
2017-09-24T02:04:56.967Z,0
2017-09-24T02:05:37.679Z,0
2017-09-24T02:06:18.160Z,0
2017-09-24T02:06:58.707Z,0
2017-09-24T02:07:39.350Z,0
2017-09-24T02:08:19.764Z,0
2017-09-24T02:09:00.334Z,0
2017-09-24T02:09:40.816Z,0
2017-09-24T02:10:21.389Z,0
2017-09-24T02:11:01.927Z,0
2017-09-24T02:11:42.477Z,0
2017-09-24T02:12:23.015Z,0
2017-09-24T02:13:03.560Z,0
2017-09-24T02:13:44.138Z,0
2017-09-24T02:14:24.660Z,0
2017-09-24T02:15:05.208Z,0
2017-09-24T02:15:45.768Z,0
2017-09-24T02:16:26.354Z,0
2017-09-24T02:17:06.970Z,0
2017-09-24T02:17:47.500Z,0
2017-09-24T02:18:28.074Z,0
2017-09-24T02:19:08.605Z,0
2017-09-24T02:19:49.201Z,0
2017-09-24T02:20:29.809Z,0
2017-09-24T02:21:10.338Z,0
2017-09-24T02:21:50.857Z,0
2017-09-24T02:22:31.389Z,0
2017-09-24T02:23:11.924Z,0
2017-09-24T02:23:52.464Z,0
2017-09-24T02:24:33.014Z,0
2017-09-24T02:25:13.550Z,0
2017-09-24T02:25:54.101Z,0
2017-09-24T02:26:34.618Z,0
2017-09-24T02:27:15.157Z,0
2017-09-24T02:27:55.733Z,0
2017-09-24T02:28:36.262Z,0
2017-09-24T02:29:16.784Z,0
2017-09-24T02:29:57.338Z,0
2017-09-24T02:30:37.871Z,0
2017-09-24T02:31:18.718Z,0
2017-09-24T02:31:59.189Z,0
2017-09-24T02:32:39.719Z,0
2017-09-24T02:33:20.346Z,0
2017-09-24T02:34:00.858Z,0
2017-09-24T02:34:41.355Z,0
2017-09-24T02:35:21.943Z,0
2017-09-24T02:36:02.468Z,0
2017-09-24T02:36:43.002Z,0
2017-09-24T02:37:23.582Z,0
2017-09-24T02:38:04.134Z,0
2017-09-24T02:38:44.715Z,0
2017-09-24T02:39:25.316Z,0
2017-09-24T02:40:05.844Z,0
2017-09-24T02:40:46.344Z,0
2017-09-24T02:41:26.946Z,0
2017-09-24T02:42:07.511Z,0
2017-09-24T02:42:48.002Z,0
2017-09-24T02:43:28.573Z,0
2017-09-24T02:44:09.063Z,0
2017-09-24T02:44:49.593Z,0
2017-09-24T02:45:30.193Z,0
2017-09-24T02:46:10.695Z,0
2017-09-24T02:46:51.309Z,0
2017-09-24T02:47:31.821Z,0
2017-09-24T02:48:12.365Z,0
2017-09-24T02:48:52.858Z,0
2017-09-24T02:49:33.398Z,0
2017-09-24T02:50:13.945Z,0
2017-09-24T02:50:54.479Z,0
2017-09-24T02:51:35.298Z,0
2017-09-24T02:52:15.832Z,0
2017-09-24T02:52:56.562Z,0
2017-09-24T02:53:37.098Z,0
2017-09-24T02:54:17.595Z,0
2017-09-24T02:54:58.117Z,0
2017-09-24T02:55:38.692Z,0
2017-09-24T02:56:19.182Z,0
2017-09-24T02:56:59.727Z,0
2017-09-24T02:57:40.266Z,0
2017-09-24T02:58:20.805Z,0
2017-09-24T02:59:01.344Z,0
2017-09-24T02:59:41.925Z,0
2017-09-24T03:00:22.440Z,0
2017-09-24T03:01:02.987Z,0
2017-09-24T03:01:43.515Z,0
2017-09-24T03:02:24.057Z,0
2017-09-24T03:03:04.603Z,0
2017-09-24T03:03:45.104Z,0
2017-09-24T03:04:25.670Z,0
2017-09-24T03:05:06.209Z,0
2017-09-24T03:05:46.754Z,0
2017-09-24T03:06:27.825Z,0
2017-09-24T03:07:08.653Z,0
2017-09-24T03:07:49.365Z,0
2017-09-24T03:08:29.986Z,0
2017-09-24T03:09:10.501Z,0
2017-09-24T03:09:51.081Z,0
2017-09-24T03:10:31.620Z,0
2017-09-24T03:11:12.146Z,0
2017-09-24T03:11:52.644Z,0
2017-09-24T03:12:33.258Z,0
2017-09-24T03:13:13.820Z,0
2017-09-24T03:13:54.363Z,0
2017-09-24T03:14:34.915Z,0
2017-09-24T03:15:15.490Z,0
2017-09-24T03:15:55.997Z,0
2017-09-24T03:16:36.536Z,0
2017-09-24T03:17:17.045Z,0
2017-09-24T03:17:57.667Z,0
2017-09-24T03:18:38.219Z,0
2017-09-24T03:19:18.800Z,0
2017-09-24T03:19:59.316Z,0
2017-09-24T03:20:39.798Z,0
2017-09-24T03:21:20.323Z,0
2017-09-24T03:22:00.891Z,0
2017-09-24T03:22:41.488Z,0
2017-09-24T03:23:22.042Z,0
2017-09-24T03:24:02.550Z,0
2017-09-24T03:24:43.093Z,0
2017-09-24T03:25:23.848Z,0
2017-09-24T03:26:04.382Z,0
2017-09-24T03:26:45.059Z,0
2017-09-24T03:27:25.605Z,0
2017-09-24T03:28:06.162Z,0
2017-09-24T03:28:46.738Z,0
2017-09-24T03:29:27.287Z,0
2017-09-24T03:30:07.816Z,0
2017-09-24T03:30:48.327Z,0
2017-09-24T03:31:28.892Z,0
2017-09-24T03:32:09.460Z,0
2017-09-24T03:32:50.132Z,0
2017-09-24T03:33:30.592Z,0
2017-09-24T03:34:11.130Z,0
2017-09-24T03:34:51.733Z,0
2017-09-24T03:35:32.373Z,0
2017-09-24T03:36:12.942Z,0
2017-09-24T03:36:53.491Z,0
2017-09-24T03:37:33.966Z,0
2017-09-24T03:38:14.540Z,0
2017-09-24T03:38:55.102Z,0
2017-09-24T03:39:35.632Z,0
2017-09-24T03:40:16.176Z,0
2017-09-24T03:40:56.744Z,0
2017-09-24T03:41:37.314Z,0
2017-09-24T03:42:17.907Z,0
2017-09-24T03:42:58.374Z,0
2017-09-24T03:43:38.969Z,0
2017-09-24T03:44:19.752Z,0
2017-09-24T03:45:00.241Z,0
2017-09-24T03:45:40.830Z,0
2017-09-24T03:46:21.303Z,0
2017-09-24T03:47:01.846Z,0
2017-09-24T03:47:42.433Z,0
2017-09-24T03:48:22.983Z,0
2017-09-24T03:49:03.529Z,0
2017-09-24T03:49:44.131Z,0
2017-09-24T03:50:24.736Z,0
2017-09-24T03:51:05.292Z,0
2017-09-24T03:51:45.836Z,0
2017-09-24T03:52:26.438Z,0
2017-09-24T03:53:06.945Z,0
2017-09-24T03:53:47.496Z,0
2017-09-24T03:54:28.041Z,0
2017-09-24T03:55:08.550Z,0
2017-09-24T03:55:49.195Z,0
2017-09-24T03:56:29.928Z,0
2017-09-24T03:57:10.587Z,0
2017-09-24T03:57:51.104Z,0
2017-09-24T03:58:31.608Z,0
2017-09-24T03:59:12.134Z,0
2017-09-24T03:59:52.692Z,0
2017-09-24T04:00:33.208Z,0
2017-09-24T04:01:13.832Z,0
2017-09-24T04:01:54.321Z,0
2017-09-24T04:02:34.881Z,0
2017-09-24T04:03:15.462Z,0
2017-09-24T04:03:56.065Z,0
2017-09-24T04:04:36.691Z,0
2017-09-24T04:05:17.243Z,0
2017-09-24T04:05:57.780Z,0
2017-09-24T04:06:38.264Z,0
2017-09-24T04:07:18.807Z,0
2017-09-24T04:07:59.375Z,0
2017-09-24T04:08:39.862Z,0
2017-09-24T04:09:20.455Z,0
2017-09-24T04:10:00.982Z,0
2017-09-24T04:10:41.555Z,0
2017-09-24T04:11:22.121Z,0
2017-09-24T04:12:02.659Z,0
2017-09-24T04:12:43.154Z,0
2017-09-24T04:13:23.707Z,0
2017-09-24T04:14:04.202Z,0
2017-09-24T04:14:44.738Z,0
2017-09-24T04:15:25.278Z,0
2017-09-24T04:16:05.826Z,0
2017-09-24T04:16:46.316Z,0
2017-09-24T04:17:26.856Z,0
2017-09-24T04:18:07.354Z,0
2017-09-24T04:18:47.908Z,0
2017-09-24T04:19:28.490Z,0
2017-09-24T04:20:09.041Z,0
2017-09-24T04:20:49.563Z,0
2017-09-24T04:21:30.110Z,0
2017-09-24T04:22:10.634Z,0
2017-09-24T04:22:51.370Z,0
2017-09-24T04:23:32.338Z,0
2017-09-24T04:24:12.985Z,0
2017-09-24T04:24:53.499Z,0
2017-09-24T04:25:34.042Z,0
2017-09-24T04:26:14.748Z,0
2017-09-24T04:26:55.305Z,0
2017-09-24T04:27:35.836Z,0
2017-09-24T04:28:16.402Z,0
2017-09-24T04:28:56.960Z,0
2017-09-24T04:29:37.480Z,0
2017-09-24T04:30:17.989Z,0
2017-09-24T04:30:58.582Z,0
2017-09-24T04:31:39.124Z,0
2017-09-24T04:32:19.670Z,0
2017-09-24T04:33:00.219Z,0
2017-09-24T04:33:40.733Z,0
2017-09-24T04:34:21.230Z,0
2017-09-24T04:35:01.743Z,0
2017-09-24T04:35:42.281Z,0
2017-09-24T04:36:22.773Z,0
2017-09-24T04:37:03.313Z,0
2017-09-24T04:37:43.846Z,0
2017-09-24T04:38:24.401Z,0
2017-09-24T04:39:04.931Z,0
2017-09-24T04:39:45.455Z,0
2017-09-24T04:40:25.945Z,0
2017-09-24T04:41:06.481Z,0
2017-09-24T04:41:47.019Z,0
2017-09-24T04:42:27.592Z,0
2017-09-24T04:43:08.144Z,0
2017-09-24T04:43:48.656Z,0
2017-09-24T04:44:29.213Z,0
2017-09-24T04:45:09.767Z,0
2017-09-24T04:45:50.341Z,0
2017-09-24T04:46:30.878Z,0
2017-09-24T04:47:11.401Z,0
2017-09-24T04:47:51.934Z,0
2017-09-24T04:48:32.506Z,0
2017-09-24T04:49:13.059Z,0
2017-09-24T04:49:53.571Z,0
2017-09-24T04:50:34.071Z,0
2017-09-24T04:51:14.650Z,0
2017-09-24T04:51:55.190Z,0
2017-09-24T04:52:35.734Z,0
2017-09-24T04:53:16.268Z,0
2017-09-24T04:53:56.801Z,0
2017-09-24T04:54:37.317Z,0
2017-09-24T04:55:17.813Z,0
2017-09-24T04:55:58.341Z,0
2017-09-24T04:56:38.930Z,0
2017-09-24T04:57:19.438Z,0
2017-09-24T04:57:59.942Z,0
2017-09-24T04:58:40.432Z,0
2017-09-24T04:59:21.026Z,0
2017-09-24T05:00:01.552Z,0
2017-09-24T05:00:42.050Z,0
2017-09-24T05:01:22.596Z,0
2017-09-24T05:02:03.123Z,0
2017-09-24T05:02:43.955Z,0
2017-09-24T05:03:24.762Z,0
2017-09-24T05:04:05.304Z,0
2017-09-24T05:04:45.862Z,0
2017-09-24T05:05:26.467Z,0
2017-09-24T05:06:06.982Z,0
2017-09-24T05:06:47.506Z,0
2017-09-24T05:07:27.987Z,0
2017-09-24T05:08:08.540Z,0
2017-09-24T05:08:49.099Z,0
2017-09-24T05:09:29.633Z,0
2017-09-24T05:10:10.164Z,0
2017-09-24T05:10:50.693Z,0
2017-09-24T05:11:31.225Z,0
2017-09-24T05:12:11.757Z,0
2017-09-24T05:12:52.326Z,0
2017-09-24T05:13:32.806Z,0
2017-09-24T05:14:13.353Z,0
2017-09-24T05:14:53.844Z,0
2017-09-24T05:15:34.419Z,0
2017-09-24T05:16:14.971Z,0
2017-09-24T05:16:55.508Z,0
2017-09-24T05:17:36.092Z,0
2017-09-24T05:18:16.610Z,0
2017-09-24T05:18:57.170Z,0
2017-09-24T05:19:37.755Z,0
2017-09-24T05:20:18.268Z,0
2017-09-24T05:20:58.786Z,0
2017-09-24T05:21:39.329Z,0
2017-09-24T05:22:19.860Z,0
2017-09-24T05:23:00.366Z,0
2017-09-24T05:23:40.921Z,0
2017-09-24T05:24:21.470Z,0
2017-09-24T05:25:02.012Z,0
2017-09-24T05:25:42.526Z,0
2017-09-24T05:26:23.076Z,0
2017-09-24T05:27:03.629Z,0
2017-09-24T05:27:44.185Z,5
2017-09-24T05:28:24.693Z,5
2017-09-24T05:29:05.230Z,5
2017-09-24T05:29:45.802Z,5
2017-09-24T05:30:26.367Z,5
2017-09-24T05:31:06.924Z,5
2017-09-24T05:31:47.422Z,5
2017-09-24T05:32:27.960Z,5
2017-09-24T05:33:08.534Z,5
2017-09-24T05:33:49.073Z,5
2017-09-24T05:34:29.549Z,5
2017-09-24T05:35:10.122Z,5
2017-09-24T05:35:50.673Z,5
2017-09-24T05:36:31.180Z,5
2017-09-24T05:37:11.707Z,5
2017-09-24T05:37:52.274Z,5
2017-09-24T05:38:32.827Z,5
2017-09-24T05:39:13.334Z,5
2017-09-24T05:39:53.860Z,5
2017-09-24T05:40:34.395Z,5
2017-09-24T05:41:14.938Z,10
2017-09-24T05:41:55.467Z,10
2017-09-24T05:42:36.022Z,10
2017-09-24T05:43:16.614Z,10
2017-09-24T05:43:57.128Z,10
2017-09-24T05:44:37.688Z,10
2017-09-24T05:45:18.241Z,10
2017-09-24T05:45:58.755Z,10
2017-09-24T05:46:39.282Z,10
2017-09-24T05:47:19.791Z,10
2017-09-24T05:48:00.323Z,10
2017-09-24T05:48:40.799Z,10
2017-09-24T05:49:21.596Z,10
2017-09-24T05:51:34.949Z,10
2017-09-24T05:52:15.493Z,10
2017-09-24T05:52:56.040Z,15
2017-09-24T05:53:36.593Z,15
2017-09-24T05:54:17.082Z,15
2017-09-24T05:54:57.602Z,15
2017-09-24T05:55:38.144Z,15
2017-09-24T05:56:18.716Z,15
2017-09-24T05:56:59.248Z,15
2017-09-24T05:57:39.796Z,15
2017-09-24T05:58:20.295Z,15
2017-09-24T05:59:00.828Z,15
2017-09-24T05:59:41.435Z,15
2017-09-24T06:00:21.935Z,15
2017-09-24T06:01:02.462Z,15
2017-09-24T06:01:42.975Z,15
2017-09-24T06:02:23.465Z,15
2017-09-24T06:03:04.056Z,15
2017-09-24T06:03:44.580Z,15
2017-09-24T06:04:25.092Z,20
2017-09-24T06:05:05.681Z,20
2017-09-24T06:05:46.251Z,20
2017-09-24T06:06:26.869Z,20
2017-09-24T06:07:07.417Z,20
2017-09-24T06:07:47.902Z,20
2017-09-24T06:08:28.485Z,20
2017-09-24T06:09:09.015Z,20
2017-09-24T06:09:49.541Z,20
2017-09-24T06:10:30.064Z,20
2017-09-24T06:11:10.578Z,20
2017-09-24T06:11:51.098Z,20
2017-09-24T06:12:31.624Z,20
2017-09-24T06:13:12.191Z,20
2017-09-24T06:13:52.737Z,20
2017-09-24T06:14:33.273Z,20
2017-09-24T06:15:13.807Z,25
2017-09-24T06:15:54.360Z,25
2017-09-24T06:16:34.903Z,25
2017-09-24T06:17:15.482Z,25
2017-09-24T06:17:56.008Z,25
2017-09-24T06:18:36.536Z,25
2017-09-24T06:19:17.204Z,25
2017-09-24T06:19:57.690Z,25
2017-09-24T06:20:38.471Z,25
2017-09-24T06:21:19.120Z,25
2017-09-24T06:21:59.581Z,25
2017-09-24T06:22:40.103Z,25
2017-09-24T06:23:20.657Z,25
2017-09-24T06:24:01.196Z,25
2017-09-24T06:24:41.715Z,25
2017-09-24T06:25:22.226Z,25
2017-09-24T06:26:02.773Z,25
2017-09-24T06:26:43.290Z,30
2017-09-24T06:27:23.847Z,30
2017-09-24T06:28:04.357Z,30
2017-09-24T06:28:44.915Z,30
2017-09-24T06:29:25.434Z,30
2017-09-24T06:30:05.947Z,30
2017-09-24T06:30:46.509Z,30
2017-09-24T06:31:27.072Z,30
2017-09-24T06:32:07.608Z,30
2017-09-24T06:32:48.148Z,30
2017-09-24T06:33:28.706Z,30
2017-09-24T06:34:09.246Z,30
2017-09-24T06:34:49.789Z,30
2017-09-24T06:35:30.349Z,30
2017-09-24T06:36:10.843Z,30
2017-09-24T06:36:51.365Z,30
2017-09-24T06:37:31.906Z,30
2017-09-24T06:38:12.427Z,30
2017-09-24T06:38:53.000Z,35
2017-09-24T06:39:33.542Z,35
2017-09-24T06:40:14.077Z,35
2017-09-24T06:40:54.598Z,35
2017-09-24T06:41:35.160Z,35
2017-09-24T06:42:15.725Z,35
2017-09-24T06:42:56.262Z,35
2017-09-24T06:43:36.786Z,35
2017-09-24T06:44:17.410Z,35
2017-09-24T06:44:57.921Z,35
2017-09-24T06:45:38.417Z,40
2017-09-24T06:46:18.972Z,40
2017-09-24T06:46:59.695Z,40
2017-09-24T06:47:40.179Z,40
2017-09-24T06:48:20.746Z,45
2017-09-24T06:49:01.263Z,45
2017-09-24T06:49:41.801Z,45
2017-09-24T06:50:22.354Z,45
2017-09-24T06:51:02.876Z,45
2017-09-24T06:51:43.458Z,45
2017-09-24T06:52:24.069Z,45
2017-09-24T06:53:04.538Z,45
2017-09-24T06:53:45.095Z,45
2017-09-24T06:54:25.652Z,50
2017-09-24T06:55:06.151Z,45
2017-09-24T06:55:46.659Z,45
2017-09-24T06:56:27.219Z,45
2017-09-24T06:57:07.763Z,45
2017-09-24T06:57:48.282Z,45
2017-09-24T06:58:28.832Z,45
2017-09-24T06:59:09.361Z,45
2017-09-24T06:59:49.901Z,45
2017-09-24T07:00:30.459Z,45
2017-09-24T07:01:11.002Z,45
2017-09-24T07:01:51.519Z,45
2017-09-24T07:02:32.063Z,45
2017-09-24T07:03:12.610Z,45
2017-09-24T07:03:53.226Z,45
2017-09-24T07:04:33.796Z,45
2017-09-24T07:05:14.303Z,45
2017-09-24T07:05:54.850Z,45
2017-09-24T07:06:35.424Z,45
2017-09-24T07:07:15.945Z,45
2017-09-24T07:07:56.514Z,45
2017-09-24T07:08:37.029Z,45
2017-09-24T07:09:17.554Z,45
2017-09-24T07:09:58.086Z,45
2017-09-24T07:10:38.642Z,45
2017-09-24T07:11:19.130Z,45
2017-09-24T07:11:59.672Z,45
2017-09-24T07:12:40.219Z,45
2017-09-24T07:13:20.771Z,45
2017-09-24T07:14:01.301Z,45
2017-09-24T07:14:41.833Z,45
2017-09-24T07:15:22.330Z,45
2017-09-24T07:16:02.888Z,45
2017-09-24T07:16:43.400Z,45
2017-09-24T07:17:23.937Z,45
2017-09-24T07:18:04.549Z,45
2017-09-24T07:18:45.029Z,45
2017-09-24T07:19:25.577Z,45
2017-09-24T07:20:06.112Z,45
2017-09-24T07:20:46.644Z,45
2017-09-24T07:21:27.196Z,45
2017-09-24T07:22:07.717Z,45
2017-09-24T07:22:48.301Z,45
2017-09-24T07:23:28.839Z,45
2017-09-24T07:24:09.370Z,45
2017-09-24T07:24:49.916Z,45
2017-09-24T07:25:30.410Z,45
2017-09-24T07:26:10.939Z,45
2017-09-24T07:26:51.492Z,45
2017-09-24T07:27:32.053Z,45
2017-09-24T07:28:12.640Z,45
2017-09-24T07:28:53.172Z,45
2017-09-24T07:29:33.696Z,45
2017-09-24T07:30:14.243Z,45
2017-09-24T07:30:54.798Z,45
2017-09-24T07:31:35.360Z,45
2017-09-24T07:32:15.876Z,45
2017-09-24T07:32:56.446Z,45
2017-09-24T07:33:36.985Z,45
2017-09-24T07:34:17.525Z,45
2017-09-24T07:34:58.087Z,45
2017-09-24T07:35:38.650Z,45
2017-09-24T07:36:19.207Z,45
2017-09-24T07:36:59.758Z,45
2017-09-24T07:37:40.233Z,45
2017-09-24T07:38:20.884Z,45
2017-09-24T07:39:01.336Z,45
2017-09-24T07:39:41.868Z,45
2017-09-24T07:40:22.411Z,45
2017-09-24T07:41:02.952Z,45
2017-09-24T07:41:43.538Z,50
2017-09-24T07:42:24.068Z,45
2017-09-24T07:43:04.633Z,45
2017-09-24T07:43:45.120Z,45
2017-09-24T07:44:25.650Z,45
2017-09-24T07:45:06.217Z,45
2017-09-24T07:45:46.765Z,45
2017-09-24T07:46:27.387Z,45
2017-09-24T07:47:07.896Z,45
2017-09-24T07:47:48.444Z,45
2017-09-24T07:48:29.035Z,45
2017-09-24T07:49:09.596Z,45
2017-09-24T07:49:50.194Z,45
2017-09-24T07:50:30.696Z,45
2017-09-24T07:51:11.248Z,45
2017-09-24T07:51:51.795Z,45
2017-09-24T07:52:32.303Z,45
2017-09-24T07:53:12.857Z,45
2017-09-24T07:53:53.374Z,45
2017-09-24T07:54:33.915Z,45
2017-09-24T07:55:14.455Z,45
2017-09-24T07:55:54.988Z,45
2017-09-24T07:56:35.530Z,45
2017-09-24T07:57:16.070Z,50
2017-09-24T07:57:56.612Z,45
2017-09-24T07:58:37.145Z,50
2017-09-24T07:59:17.713Z,50
2017-09-24T07:59:58.290Z,50
2017-09-24T08:00:38.772Z,50
2017-09-24T08:01:19.301Z,45
2017-09-24T08:01:59.839Z,45
2017-09-24T08:02:40.396Z,45
2017-09-24T08:03:20.933Z,45
2017-09-24T08:04:01.511Z,50
2017-09-24T08:04:42.073Z,50
2017-09-24T08:05:23.243Z,50
2017-09-24T08:06:03.755Z,50
2017-09-24T08:06:44.375Z,50
2017-09-24T08:07:24.863Z,50
2017-09-24T08:08:05.377Z,50
2017-09-24T08:08:45.946Z,50
2017-09-24T08:09:26.604Z,50
2017-09-24T08:10:07.155Z,50
2017-09-24T08:10:47.716Z,50
2017-09-24T08:11:28.237Z,50
2017-09-24T08:12:08.905Z,50
2017-09-24T08:12:49.413Z,50
2017-09-24T08:13:29.951Z,50
2017-09-24T08:14:10.464Z,50
2017-09-24T08:14:51.008Z,50
2017-09-24T08:15:31.551Z,50
2017-09-24T08:16:12.080Z,50
2017-09-24T08:16:52.634Z,50
2017-09-24T08:17:33.186Z,50
2017-09-24T08:18:13.762Z,50
2017-09-24T08:18:54.304Z,50
2017-09-24T08:19:34.886Z,50
2017-09-24T08:20:15.446Z,50
2017-09-24T08:20:55.990Z,50
2017-09-24T08:21:36.504Z,50
2017-09-24T08:22:17.087Z,50
2017-09-24T08:22:57.617Z,50
2017-09-24T08:23:38.196Z,50
2017-09-24T08:24:18.717Z,50
2017-09-24T08:24:59.300Z,50
2017-09-24T08:25:39.914Z,50
2017-09-24T08:26:21.524Z,50
2017-09-24T08:27:02.064Z,50
2017-09-24T08:27:42.610Z,50
2017-09-24T08:28:23.199Z,50
2017-09-24T08:29:03.726Z,50
2017-09-24T08:29:44.269Z,50
2017-09-24T08:30:24.806Z,50
2017-09-24T08:31:05.375Z,50
2017-09-24T08:31:46.016Z,50
2017-09-24T08:32:26.474Z,50
2017-09-24T08:33:07.032Z,45
2017-09-24T08:33:47.565Z,50
2017-09-24T08:34:28.104Z,45
2017-09-24T08:35:08.708Z,50
2017-09-24T08:35:49.262Z,50
2017-09-24T08:36:29.783Z,50
2017-09-24T08:37:10.447Z,55
2017-09-24T08:37:51.020Z,55
2017-09-24T08:38:31.539Z,50
2017-09-24T08:39:12.069Z,55
2017-09-24T08:39:52.629Z,55
2017-09-24T08:40:33.154Z,55
2017-09-24T08:41:13.712Z,60
2017-09-24T08:41:54.317Z,55
2017-09-24T08:42:34.867Z,55
2017-09-24T08:43:15.418Z,60
2017-09-24T08:43:55.984Z,60
2017-09-24T08:44:36.576Z,60
2017-09-24T08:45:17.211Z,55
2017-09-24T08:45:57.835Z,55
2017-09-24T08:46:38.447Z,50
2017-09-24T08:47:19.001Z,55
2017-09-24T08:47:59.578Z,50
2017-09-24T08:48:40.266Z,55
2017-09-24T08:49:20.750Z,55
2017-09-24T08:50:01.306Z,55
2017-09-24T08:50:41.908Z,55
2017-09-24T08:51:22.489Z,55
2017-09-24T08:52:03.252Z,55
2017-09-24T08:52:43.775Z,55
2017-09-24T08:53:24.325Z,55
2017-09-24T08:54:04.869Z,55
2017-09-24T08:54:45.428Z,55
2017-09-24T08:55:26.010Z,55
2017-09-24T08:56:06.648Z,55
2017-09-24T08:56:47.436Z,55
2017-09-24T08:57:27.948Z,55
2017-09-24T08:58:08.797Z,60
2017-09-24T08:58:49.354Z,60
2017-09-24T08:59:29.926Z,60
2017-09-24T09:00:10.448Z,60
2017-09-24T09:00:51.010Z,60
2017-09-24T09:01:31.614Z,60
2017-09-24T09:02:12.144Z,60
2017-09-24T09:02:52.675Z,60
2017-09-24T09:03:33.258Z,60
2017-09-24T09:04:13.776Z,60
2017-09-24T09:04:54.463Z,60
2017-09-24T09:05:34.985Z,60
2017-09-24T09:06:15.493Z,60
2017-09-24T09:06:56.068Z,60
2017-09-24T09:07:36.800Z,60
2017-09-24T09:08:17.209Z,65
2017-09-24T09:08:57.714Z,65
2017-09-24T09:09:38.289Z,65
2017-09-24T09:10:18.821Z,65
2017-09-24T09:10:59.366Z,65
2017-09-24T09:11:39.913Z,65
2017-09-24T09:12:20.474Z,60
2017-09-24T09:13:01.032Z,65
2017-09-24T09:13:41.502Z,60
2017-09-24T09:14:22.104Z,60
2017-09-24T09:15:02.613Z,60
2017-09-24T09:15:43.273Z,60
2017-09-24T09:16:23.765Z,60
2017-09-24T09:17:04.483Z,60
2017-09-24T09:17:45.157Z,60
2017-09-24T09:18:25.654Z,60
2017-09-24T09:19:06.166Z,60
2017-09-24T09:19:46.733Z,60
2017-09-24T09:20:27.438Z,60
2017-09-24T09:21:07.938Z,60
2017-09-24T09:21:48.415Z,60
2017-09-24T09:22:29.142Z,60
2017-09-24T09:23:09.730Z,60
2017-09-24T09:23:50.475Z,60
2017-09-24T09:24:31.017Z,60
2017-09-24T09:25:11.480Z,60
2017-09-24T09:25:52.005Z,60
2017-09-24T09:26:32.597Z,55
2017-09-24T09:27:13.112Z,60
2017-09-24T09:27:53.666Z,55
2017-09-24T09:28:34.195Z,55
2017-09-24T09:29:14.751Z,55
2017-09-24T09:29:55.258Z,55
2017-09-24T09:30:35.844Z,55
2017-09-24T09:31:16.459Z,55
2017-09-24T09:31:57.053Z,55
2017-09-24T09:32:37.649Z,55
2017-09-24T09:33:18.179Z,55
2017-09-24T09:33:59.015Z,55
2017-09-24T09:34:39.860Z,55
2017-09-24T09:35:20.392Z,55
2017-09-24T09:36:00.940Z,55
2017-09-24T09:36:41.436Z,55
2017-09-24T09:37:22.015Z,55
2017-09-24T09:38:02.611Z,55
2017-09-24T09:38:43.179Z,50
2017-09-24T09:39:23.745Z,50
2017-09-24T09:40:04.231Z,50
2017-09-24T09:40:44.806Z,50
2017-09-24T09:41:25.432Z,50
2017-09-24T09:42:05.942Z,50
2017-09-24T09:42:46.524Z,50
2017-09-24T09:43:27.069Z,50
2017-09-24T09:44:07.566Z,50
2017-09-24T09:44:48.120Z,50
2017-09-24T09:45:28.683Z,50
2017-09-24T09:46:09.246Z,50
2017-09-24T09:46:49.831Z,50
2017-09-24T09:47:30.337Z,50
2017-09-24T09:48:10.868Z,50
2017-09-24T09:48:51.398Z,50
2017-09-24T09:49:31.988Z,50
2017-09-24T09:50:12.541Z,50
2017-09-24T09:50:53.027Z,55
2017-09-24T09:51:33.606Z,55
2017-09-24T09:52:14.158Z,55